createdAt,value
2023-04-15T00:02:18.534Z,99.90
2023-04-15T00:04:47.255Z,99.90
2023-04-15T00:07:16.400Z,99.90
2023-04-15T00:09:44.734Z,99.90
2023-04-15T00:12:13.340Z,99.90
2023-04-15T00:14:41.967Z,99.90
2023-04-15T00:17:10.282Z,99.90
2023-04-15T00:19:40.971Z,99.90
2023-04-15T00:22:09.569Z,99.90
2023-04-15T00:24:37.985Z,99.90
2023-04-15T00:27:06.302Z,99.90
2023-04-15T00:29:35.780Z,99.90
2023-04-15T00:32:03.979Z,99.90
2023-04-15T00:34:32.533Z,99.90
2023-04-15T00:37:02.172Z,99.90
2023-04-15T00:39:30.942Z,99.90
2023-04-15T00:41:59.492Z,99.90
2023-04-15T00:44:27.897Z,99.90
2023-04-15T00:46:56.497Z,99.90
2023-04-15T00:49:24.969Z,99.90
2023-04-15T00:51:53.180Z,99.90
2023-04-15T00:54:23.521Z,99.90
2023-04-15T00:56:51.860Z,99.90
2023-04-15T00:59:20.182Z,99.90
2023-04-15T01:01:48.632Z,99.90
2023-04-15T01:04:17.667Z,99.90
2023-04-15T01:06:46.237Z,99.90
2023-04-15T01:09:14.742Z,99.90
2023-04-15T01:11:44.806Z,99.90
2023-04-15T01:14:13.082Z,99.90
2023-04-15T01:16:41.386Z,99.90
2023-04-15T01:19:12.122Z,99.90
2023-04-15T01:21:41.073Z,99.90
2023-04-15T01:24:11.373Z,99.90
2023-04-15T01:26:42.332Z,99.90
2023-04-15T01:29:11.305Z,99.90
2023-04-15T01:31:39.687Z,99.90
2023-04-15T01:34:07.955Z,99.90
2023-04-15T01:36:36.849Z,99.90
2023-04-15T01:39:05.748Z,99.90
2023-04-15T01:41:34.051Z,99.90
2023-04-15T01:44:03.722Z,99.90
2023-04-15T01:46:32.526Z,99.90
2023-04-15T01:49:01.099Z,99.90
2023-04-15T01:51:29.542Z,99.90
2023-04-15T01:53:57.815Z,99.90
2023-04-15T01:56:26.696Z,99.90
2023-04-15T01:58:55.149Z,99.90
2023-04-15T02:01:25.073Z,99.90
2023-04-15T02:03:53.484Z,99.90
2023-04-15T02:06:21.777Z,99.90
2023-04-15T02:08:50.004Z,99.90
2023-04-15T02:11:18.367Z,99.90
2023-04-15T02:13:46.853Z,99.90
2023-04-15T02:16:18.752Z,99.90
2023-04-15T02:18:48.713Z,99.90
2023-04-15T02:21:17.024Z,99.90
2023-04-15T02:23:47.079Z,99.90
2023-04-15T02:26:15.508Z,99.90
2023-04-15T02:28:43.726Z,99.90
2023-04-15T02:31:11.961Z,99.90
2023-04-15T02:33:40.343Z,99.90
2023-04-15T02:36:11.628Z,99.90
2023-04-15T02:38:41.365Z,99.90
2023-04-15T02:41:10.572Z,99.90
2023-04-15T02:43:40.069Z,99.90
2023-04-15T02:46:08.470Z,99.90
2023-04-15T02:48:37.200Z,99.90
2023-04-15T02:51:23.678Z,99.90
2023-04-15T02:53:52.069Z,99.90
2023-04-15T02:56:20.281Z,99.90
2023-04-15T02:58:50.705Z,99.90
2023-04-15T03:01:20.558Z,99.90
2023-04-15T03:03:49.136Z,99.90
2023-04-15T03:06:18.806Z,99.90
2023-04-15T03:08:47.144Z,99.90
2023-04-15T03:11:17.157Z,99.90
2023-04-15T03:13:45.639Z,99.90
2023-04-15T03:16:14.012Z,99.90
2023-04-15T03:18:42.297Z,99.90
2023-04-15T03:21:10.627Z,99.90
2023-04-15T03:23:40.382Z,99.90
2023-04-15T03:26:08.753Z,99.90
2023-04-15T03:28:36.957Z,99.90
2023-04-15T03:31:05.286Z,99.90
2023-04-15T03:33:33.500Z,99.90
2023-04-15T03:36:01.766Z,99.90
2023-04-15T03:38:30.053Z,99.90
2023-04-15T03:40:59.683Z,99.90
2023-04-15T03:43:27.916Z,99.90
2023-04-15T03:45:56.284Z,99.90
2023-04-15T03:48:24.644Z,99.90
2023-04-15T03:50:52.917Z,99.90
2023-04-15T03:53:22.426Z,99.90
2023-04-15T03:55:50.631Z,99.90
2023-04-15T03:58:20.228Z,99.90
2023-04-15T04:00:48.497Z,99.90
2023-04-15T04:03:16.864Z,99.90
2023-04-15T04:05:45.299Z,99.90
2023-04-15T04:08:16.294Z,99.90
2023-04-15T04:10:44.524Z,99.90
2023-04-15T04:13:12.828Z,99.90
2023-04-15T04:15:42.508Z,99.90
2023-04-15T04:18:10.816Z,99.90
2023-04-15T04:20:39.129Z,99.90
2023-04-15T04:23:09.018Z,99.90
2023-04-15T04:25:37.749Z,99.90
2023-04-15T04:28:06.048Z,99.90
2023-04-15T04:30:34.348Z,99.90
2023-04-15T04:33:04.096Z,99.90
2023-04-15T04:35:34.887Z,99.90
2023-04-15T04:38:03.113Z,99.90
2023-04-15T04:40:31.445Z,99.90
2023-04-15T04:42:59.770Z,99.90
2023-04-15T04:45:28.009Z,99.90
2023-04-15T04:47:56.408Z,99.90
2023-04-15T04:50:26.105Z,99.90
2023-04-15T04:52:54.444Z,99.90
2023-04-15T04:55:22.702Z,99.90
2023-04-15T04:57:50.997Z,99.90
2023-04-15T05:00:19.500Z,99.90
2023-04-15T05:02:47.880Z,99.90
2023-04-15T05:05:16.452Z,99.90
2023-04-15T05:07:46.261Z,99.90
2023-04-15T05:10:15.372Z,99.90
2023-04-15T05:12:43.587Z,99.90
2023-04-15T05:15:12.464Z,99.90
2023-04-15T05:17:40.708Z,99.90
2023-04-15T05:20:10.078Z,99.90
2023-04-15T05:22:38.712Z,99.90
2023-04-15T05:25:09.680Z,99.90
2023-04-15T05:27:37.950Z,99.90
2023-04-15T05:30:07.336Z,99.90
2023-04-15T05:32:35.759Z,99.90
2023-04-15T05:35:04.073Z,99.90
2023-04-15T05:37:32.273Z,99.90
2023-04-15T05:40:01.087Z,99.90
2023-04-15T05:42:30.875Z,99.90
2023-04-15T05:44:59.055Z,99.90
2023-04-15T05:47:27.558Z,99.90
2023-04-15T05:49:55.915Z,99.90
2023-04-15T05:52:24.115Z,99.90
2023-04-15T05:54:52.368Z,99.90
2023-04-15T05:57:20.874Z,99.90
2023-04-15T05:59:52.394Z,99.90
2023-04-15T06:02:21.194Z,99.90
2023-04-15T06:04:49.682Z,99.90
2023-04-15T06:07:17.935Z,99.90
2023-04-15T06:09:46.178Z,99.90
2023-04-15T06:12:14.401Z,99.90
2023-04-15T06:14:42.654Z,99.90
2023-04-15T06:17:14.922Z,99.90
2023-04-15T06:19:43.154Z,99.90
2023-04-15T06:22:11.400Z,99.90
2023-04-15T06:24:39.590Z,99.90
2023-04-15T06:27:08.146Z,99.90
2023-04-15T06:29:36.427Z,99.90
2023-04-15T06:32:04.638Z,99.90
2023-04-15T06:34:34.278Z,99.90
2023-04-15T06:37:04.405Z,99.90
2023-04-15T06:39:33.929Z,99.90
2023-04-15T06:42:02.175Z,99.90
2023-04-15T06:44:32.623Z,99.90
2023-04-15T06:47:02.351Z,99.90
2023-04-15T06:49:30.842Z,99.90
2023-04-15T06:52:00.724Z,99.90
2023-04-15T06:54:28.903Z,99.90
2023-04-15T06:56:57.069Z,99.90
2023-04-15T06:59:25.644Z,99.90
2023-04-15T07:01:54.218Z,99.90
2023-04-15T07:04:22.706Z,99.90
2023-04-15T07:06:51.172Z,99.90
2023-04-15T07:09:20.978Z,99.90
2023-04-15T07:11:49.625Z,99.90
2023-04-15T07:14:18.381Z,99.90
2023-04-15T07:16:47.381Z,99.90
2023-04-15T07:19:15.851Z,99.90
2023-04-15T07:21:44.231Z,99.90
2023-04-15T07:24:12.656Z,99.90
2023-04-15T07:26:42.550Z,99.90
2023-04-15T07:29:10.972Z,99.90
2023-04-15T07:31:39.492Z,99.90
2023-04-15T07:34:08.877Z,99.90
2023-04-15T07:36:37.476Z,99.90
2023-04-15T07:39:06.030Z,99.90
2023-04-15T07:41:34.550Z,99.90
2023-04-15T07:44:05.468Z,99.90
2023-04-15T07:46:33.927Z,99.90
2023-04-15T07:49:02.621Z,99.90
2023-04-15T07:51:32.363Z,99.90
2023-04-15T07:54:00.862Z,99.90
2023-04-15T07:56:29.249Z,99.90
2023-04-15T07:58:57.729Z,99.90
2023-04-15T08:01:27.673Z,99.90
2023-04-15T08:03:56.162Z,99.90
2023-04-15T08:06:24.872Z,99.90
2023-04-15T08:08:54.425Z,99.40
2023-04-15T08:11:23.210Z,99.20
2023-04-15T08:13:51.689Z,99.20
2023-04-15T08:16:22.682Z,98.60
2023-04-15T08:18:55.777Z,98.70
2023-04-15T08:21:25.074Z,98.90
2023-04-15T08:23:54.706Z,98.70
2023-04-15T08:26:23.924Z,98.70
2023-04-15T08:28:52.481Z,98.00
2023-04-15T08:31:22.052Z,97.60
2023-04-15T08:33:53.630Z,96.90
2023-04-15T08:36:22.172Z,97.40
2023-04-15T08:38:50.639Z,97.30
2023-04-15T08:41:24.388Z,97.40
2023-04-15T08:44:02.681Z,96.60
2023-04-15T08:46:34.155Z,96.60
2023-04-15T08:49:07.120Z,95.60
2023-04-15T08:51:35.693Z,95.40
2023-04-15T08:54:05.323Z,95.00
2023-04-15T08:56:34.134Z,94.60
2023-04-15T08:59:03.873Z,95.20
2023-04-15T09:01:43.028Z,95.70
2023-04-15T09:04:13.742Z,94.20
2023-04-15T09:06:42.436Z,93.10
2023-04-15T09:09:11.690Z,93.00
2023-04-15T09:11:40.524Z,93.10
2023-04-15T09:14:09.206Z,93.90
2023-04-15T09:16:59.146Z,93.10
2023-04-15T09:19:29.767Z,93.70
2023-04-15T09:22:00.542Z,93.30
2023-04-15T09:24:39.592Z,93.70
2023-04-15T09:27:08.363Z,93.10
2023-04-15T09:29:37.146Z,93.80
2023-04-15T09:32:14.118Z,93.80
2023-04-15T09:34:44.840Z,93.60
2023-04-15T09:37:31.194Z,94.00
2023-04-15T09:40:00.642Z,94.00
2023-04-15T09:42:29.299Z,94.10
2023-04-15T09:44:57.791Z,94.60
2023-04-15T09:47:30.527Z,95.50
2023-04-15T09:50:01.449Z,96.00
2023-04-15T09:52:30.637Z,96.20
2023-04-15T09:55:00.892Z,96.00
2023-04-15T09:57:37.370Z,95.80
2023-04-15T10:00:08.189Z,95.80
2023-04-15T10:02:37.234Z,96.10
2023-04-15T10:05:09.003Z,96.30
2023-04-15T10:07:37.350Z,95.90
2023-04-15T10:10:07.657Z,96.00
2023-04-15T10:12:38.260Z,96.40
2023-04-15T10:15:12.759Z,96.80
2023-04-15T10:17:44.899Z,97.20
2023-04-15T10:20:16.209Z,96.70
2023-04-15T10:22:46.487Z,96.30
2023-04-15T10:25:16.576Z,96.40
2023-04-15T10:27:45.354Z,96.50
2023-04-15T10:30:14.392Z,95.80
2023-04-15T10:32:43.330Z,95.80
2023-04-15T10:35:12.527Z,94.80
2023-04-15T10:37:42.493Z,94.50
2023-04-15T10:40:28.430Z,94.60
2023-04-15T10:42:57.753Z,94.20
2023-04-15T10:45:28.869Z,93.90
2023-04-15T10:47:58.859Z,94.60
2023-04-15T10:50:29.868Z,94.30
2023-04-15T10:52:59.972Z,94.50
2023-04-15T10:55:33.194Z,94.50
2023-04-15T10:58:03.282Z,94.60
2023-04-15T11:00:35.304Z,95.20
2023-04-15T11:03:08.861Z,95.30
2023-04-15T11:05:54.265Z,95.00
2023-04-15T11:08:59.095Z,94.10
2023-04-15T11:12:08.507Z,94.00
2023-04-15T11:14:43.336Z,94.50
2023-04-15T11:17:12.023Z,95.50
2023-04-15T11:19:40.989Z,94.50
2023-04-15T11:22:10.959Z,94.60
2023-04-15T11:24:50.633Z,94.40
2023-04-15T11:27:23.690Z,93.80
2023-04-15T11:29:53.042Z,94.70
2023-04-15T11:32:23.609Z,94.90
2023-04-15T11:34:53.823Z,94.90
2023-04-15T11:37:30.757Z,94.70
2023-04-15T11:40:00.741Z,94.50
2023-04-15T11:42:39.339Z,94.70
2023-04-15T11:45:17.061Z,95.00
2023-04-15T11:47:45.544Z,95.10
2023-04-15T11:50:19.118Z,95.00
2023-04-15T11:52:58.136Z,95.00
2023-04-15T11:55:28.624Z,95.00
2023-04-15T11:58:16.376Z,94.50
2023-04-15T12:00:49.961Z,94.10
2023-04-15T12:03:25.553Z,94.00
2023-04-15T12:06:19.394Z,94.00
2023-04-15T12:09:17.188Z,92.80
2023-04-15T12:11:51.764Z,93.00
2023-04-15T12:14:31.379Z,93.10
2023-04-15T12:17:02.062Z,93.40
2023-04-15T12:19:32.531Z,91.60
2023-04-15T12:22:03.424Z,91.80
2023-04-15T12:24:34.530Z,91.60
2023-04-15T12:27:09.271Z,92.00
2023-04-15T12:29:39.937Z,91.50
2023-04-15T12:32:10.922Z,90.40
2023-04-15T12:34:41.415Z,90.80
2023-04-15T12:37:13.262Z,91.80
2023-04-15T12:39:43.714Z,91.00
2023-04-15T12:42:14.085Z,92.00
2023-04-15T12:44:43.174Z,91.90
2023-04-15T12:47:12.804Z,92.30
2023-04-15T12:49:41.748Z,92.70
2023-04-15T12:52:10.218Z,92.40
2023-04-15T12:54:38.654Z,92.60
2023-04-15T12:57:07.801Z,92.50
2023-04-15T12:59:38.853Z,91.70
2023-04-15T13:02:07.355Z,91.40
2023-04-15T13:04:35.937Z,91.20
2023-04-15T13:07:04.481Z,90.50
2023-04-15T13:09:33.175Z,90.20
2023-04-15T13:12:02.295Z,89.70
2023-04-15T13:14:30.729Z,90.10
2023-04-15T13:17:00.926Z,90.50
2023-04-15T13:19:29.318Z,91.00
2023-04-15T13:21:57.721Z,91.60
2023-04-15T13:24:26.187Z,90.00
2023-04-15T13:26:54.694Z,90.60
2023-04-15T13:29:23.368Z,90.70
2023-04-15T13:31:51.918Z,90.00
2023-04-15T13:34:21.836Z,89.70
2023-04-15T13:36:50.290Z,89.70
2023-04-15T13:39:18.778Z,89.50
2023-04-15T13:41:48.524Z,89.30
2023-04-15T13:44:16.927Z,89.90
2023-04-15T13:46:45.602Z,90.20
2023-04-15T13:49:14.094Z,90.20
2023-04-15T13:51:43.913Z,90.60
2023-04-15T13:54:12.406Z,90.60
2023-04-15T13:56:41.180Z,90.80
2023-04-15T13:59:09.628Z,90.80
2023-04-15T14:01:38.118Z,91.20
2023-04-15T14:04:07.308Z,91.10
2023-04-15T14:06:36.002Z,91.60
2023-04-15T14:09:06.303Z,91.60
2023-04-15T14:11:35.473Z,91.10
2023-04-15T14:14:04.157Z,91.30
2023-04-15T14:16:34.595Z,91.90
2023-04-15T14:19:04.598Z,91.70
2023-04-15T14:21:33.753Z,92.20
2023-04-15T14:24:02.188Z,91.80
2023-04-15T14:26:32.070Z,91.90
2023-04-15T14:29:03.457Z,91.90
2023-04-15T14:31:32.141Z,92.20
2023-04-15T14:34:00.647Z,92.00
2023-04-15T14:36:29.214Z,92.00
2023-04-15T14:38:57.656Z,92.00
2023-04-15T14:41:26.158Z,92.60
2023-04-15T14:43:56.728Z,92.70
2023-04-15T14:46:25.400Z,93.40
2023-04-15T14:48:53.906Z,93.90
2023-04-15T14:51:22.487Z,93.70
2023-04-15T14:53:51.018Z,93.70
2023-04-15T14:56:20.320Z,93.60
2023-04-15T14:58:49.437Z,93.80
2023-04-15T15:01:19.294Z,94.20
2023-04-15T15:03:48.058Z,94.30
2023-04-15T15:06:16.673Z,94.10
2023-04-15T15:08:45.135Z,92.80
2023-04-15T15:11:13.684Z,93.40
2023-04-15T15:13:42.158Z,93.10
2023-04-15T15:16:13.046Z,92.50
2023-04-15T15:18:44.298Z,92.90
2023-04-15T15:21:14.518Z,93.30
2023-04-15T15:23:42.903Z,93.20
2023-04-15T15:26:11.734Z,93.40
2023-04-15T15:28:40.229Z,94.00
2023-04-15T15:31:08.759Z,94.20
2023-04-15T15:33:37.234Z,93.90
2023-04-15T15:36:07.421Z,94.20
2023-04-15T15:38:35.948Z,94.40
2023-04-15T15:41:05.331Z,94.90
2023-04-15T15:43:33.721Z,95.30
2023-04-15T15:46:03.057Z,95.30
2023-04-15T15:48:31.717Z,95.70
2023-04-15T15:51:00.341Z,95.00
2023-04-15T15:53:30.330Z,95.10
2023-04-15T15:55:58.834Z,95.00
2023-04-15T15:58:27.331Z,95.10
2023-04-15T16:01:00.412Z,95.50
2023-04-15T16:03:30.755Z,95.70
2023-04-15T16:05:59.276Z,95.70
2023-04-15T16:08:29.161Z,95.50
2023-04-15T16:10:57.759Z,95.50
2023-04-15T16:13:26.228Z,95.90
2023-04-15T16:15:54.633Z,96.00
2023-04-15T16:18:23.129Z,96.30
2023-04-15T16:20:51.708Z,95.90
2023-04-15T16:23:21.221Z,96.20
2023-04-15T16:25:52.742Z,96.20
2023-04-15T16:28:26.890Z,96.40
2023-04-15T16:30:56.372Z,96.10
2023-04-15T16:33:25.056Z,96.20
2023-04-15T16:35:53.589Z,96.20
2023-04-15T16:38:22.058Z,95.90
2023-04-15T16:40:52.742Z,95.70
2023-04-15T16:43:21.487Z,96.00
2023-04-15T16:45:51.604Z,96.00
2023-04-15T16:48:21.315Z,96.00
2023-04-15T16:50:50.153Z,96.00
2023-04-15T16:53:18.777Z,96.10
2023-04-15T16:55:47.218Z,96.20
2023-04-15T16:58:17.260Z,96.30
2023-04-15T17:00:45.819Z,96.20
2023-04-15T17:03:14.409Z,96.30
2023-04-15T17:05:43.406Z,96.50
2023-04-15T17:08:11.828Z,96.30
2023-04-15T17:10:40.405Z,96.10
2023-04-15T17:13:09.136Z,96.30
2023-04-15T17:15:38.907Z,96.40
2023-04-15T17:18:08.662Z,96.50
2023-04-15T17:20:37.167Z,96.80
2023-04-15T17:23:05.859Z,96.70
2023-04-15T17:25:34.386Z,96.40
2023-04-15T17:28:02.796Z,96.60
2023-04-15T17:30:31.334Z,96.60
2023-04-15T17:33:01.263Z,96.60
2023-04-15T17:35:29.802Z,96.80
2023-04-15T17:37:58.456Z,97.00
2023-04-15T17:40:26.965Z,97.10
2023-04-15T17:42:55.649Z,97.40
2023-04-15T17:45:24.086Z,97.40
2023-04-15T17:47:52.598Z,97.40
2023-04-15T17:50:22.705Z,97.40
2023-04-15T17:52:51.572Z,97.00
2023-04-15T17:55:22.163Z,96.80
2023-04-15T17:57:50.857Z,96.80
2023-04-15T18:00:19.579Z,97.30
2023-04-15T18:02:49.031Z,97.30
2023-04-15T18:05:19.825Z,97.30
2023-04-15T18:07:51.684Z,97.30
2023-04-15T18:10:20.635Z,97.60
2023-04-15T18:12:49.334Z,97.50
2023-04-15T18:15:18.736Z,97.70
2023-04-15T18:17:47.252Z,98.00
2023-04-15T18:20:15.742Z,98.20
2023-04-15T18:22:44.682Z,98.30
2023-04-15T18:25:14.508Z,98.40
2023-04-15T18:27:42.982Z,98.20
2023-04-15T18:30:12.971Z,98.20
2023-04-15T18:32:42.119Z,98.30
2023-04-15T18:35:11.233Z,98.40
2023-04-15T18:37:39.726Z,98.50
2023-04-15T18:40:09.278Z,98.30
2023-04-15T18:42:38.968Z,98.30
2023-04-15T18:45:08.236Z,98.30
2023-04-15T18:47:36.499Z,98.40
2023-04-15T18:50:04.858Z,98.30
2023-04-15T18:52:33.849Z,98.30
2023-04-15T18:55:03.362Z,98.60
2023-04-15T18:57:35.177Z,98.70
2023-04-15T19:00:07.123Z,98.60
2023-04-15T19:02:35.338Z,98.70
2023-04-15T19:05:04.611Z,98.50
2023-04-15T19:07:33.299Z,98.60
2023-04-15T19:10:01.797Z,98.60
2023-04-15T19:12:30.313Z,98.60
2023-04-15T19:14:58.989Z,98.80
2023-04-15T19:17:29.027Z,98.90
2023-04-15T19:19:57.542Z,99.10
2023-04-15T19:22:26.313Z,99.20
2023-04-15T19:24:54.724Z,99.20
2023-04-15T19:27:23.275Z,99.20
2023-04-15T19:29:51.692Z,99.70
2023-04-15T19:32:21.250Z,99.80
2023-04-15T19:34:51.428Z,99.90
2023-04-15T19:37:19.982Z,99.90
2023-04-15T19:39:48.569Z,99.90
2023-04-15T19:42:18.026Z,99.90
2023-04-15T19:44:46.454Z,99.90
2023-04-15T19:47:14.971Z,99.90
2023-04-15T19:49:43.417Z,99.90
2023-04-15T19:52:13.613Z,99.90
2023-04-15T19:54:44.150Z,99.90
2023-04-15T19:57:12.661Z,99.90
2023-04-15T19:59:41.116Z,99.90
2023-04-15T20:02:09.828Z,99.90
2023-04-15T20:04:38.427Z,99.90
2023-04-15T20:07:06.908Z,99.90
2023-04-15T20:09:36.773Z,99.90
2023-04-15T20:12:49.225Z,99.90
2023-04-15T20:14:54.259Z,99.90
2023-04-15T20:17:22.689Z,99.90
2023-04-15T20:19:51.312Z,99.90
2023-04-15T20:22:19.718Z,99.90
2023-04-15T20:24:49.569Z,99.90
2023-04-15T20:27:17.994Z,99.90
2023-04-15T20:29:49.548Z,99.90
2023-04-15T20:32:19.220Z,99.90
2023-04-15T20:34:48.229Z,99.90
2023-04-15T20:37:17.034Z,99.90
2023-04-15T20:39:45.646Z,99.90
2023-04-15T20:42:15.952Z,99.90
2023-04-15T20:44:44.440Z,99.90
2023-04-15T20:47:12.956Z,99.90
2023-04-15T20:49:41.864Z,99.90
2023-04-15T20:52:10.832Z,99.90
2023-04-15T20:54:39.299Z,99.90
2023-04-15T20:57:07.946Z,99.90
2023-04-15T20:59:38.031Z,99.90
2023-04-15T21:02:06.736Z,99.90
2023-04-15T21:04:35.443Z,99.90
2023-04-15T21:07:03.910Z,99.90
2023-04-15T21:09:32.308Z,99.90
2023-04-15T21:12:02.184Z,99.90
2023-04-15T21:14:31.042Z,99.90
2023-04-15T21:17:03.375Z,99.90
2023-04-15T21:19:31.830Z,99.90
2023-04-15T21:22:00.397Z,99.90
2023-04-15T21:24:28.721Z,99.90
2023-04-15T21:26:57.767Z,99.90
2023-04-15T21:29:26.084Z,99.90
2023-04-15T21:31:54.347Z,99.90
2023-04-15T21:34:23.985Z,99.90
2023-04-15T21:36:52.212Z,99.90
2023-04-15T21:39:20.501Z,99.90
2023-04-15T21:41:48.913Z,99.90
2023-04-15T21:44:17.123Z,99.90
2023-04-15T21:46:45.989Z,99.90
2023-04-15T21:49:14.616Z,99.90
2023-04-15T21:51:45.652Z,99.90
2023-04-15T21:54:13.875Z,99.90
2023-04-15T21:56:42.413Z,99.90
2023-04-15T21:59:10.790Z,99.90
2023-04-15T22:01:39.045Z,99.90
2023-04-15T22:04:07.751Z,99.90
2023-04-15T22:06:36.134Z,99.90
2023-04-15T22:09:05.970Z,99.90
2023-04-15T22:11:35.177Z,99.90
2023-04-15T22:14:03.393Z,99.90
2023-04-15T22:16:31.765Z,99.90
2023-04-15T22:19:00.066Z,99.90
2023-04-15T22:21:28.682Z,99.90
2023-04-15T22:24:34.881Z,99.90
2023-04-15T22:26:46.628Z,99.90
2023-04-15T22:29:14.835Z,99.90
2023-04-15T22:31:44.052Z,99.90
2023-04-15T22:34:14.707Z,99.90
2023-04-15T22:36:42.963Z,99.90
2023-04-15T22:39:11.122Z,99.90
2023-04-15T22:41:39.364Z,99.90
2023-04-15T22:44:09.240Z,99.90
2023-04-15T22:46:38.399Z,99.90
2023-04-15T22:49:10.084Z,99.90
2023-04-15T22:51:38.762Z,99.90
2023-04-15T22:54:06.936Z,99.90
2023-04-15T22:56:35.342Z,99.90
2023-04-15T22:59:03.725Z,99.90
2023-04-15T23:01:33.336Z,99.90
2023-04-15T23:04:05.908Z,99.90
2023-04-15T23:06:37.113Z,99.90
2023-04-15T23:09:05.437Z,99.90
2023-04-15T23:11:33.646Z,99.90
2023-04-15T23:14:01.909Z,99.90
2023-04-15T23:16:30.206Z,99.90
2023-04-15T23:18:59.928Z,99.90
2023-04-15T23:21:29.120Z,99.90
2023-04-15T23:23:57.431Z,99.90
2023-04-15T23:26:27.328Z,99.90
2023-04-15T23:28:55.542Z,99.90
2023-04-15T23:31:23.780Z,99.90
2023-04-15T23:33:52.079Z,99.90
2023-04-15T23:36:21.702Z,99.90
2023-04-15T23:38:49.936Z,99.90
2023-04-15T23:41:18.156Z,99.90
2023-04-15T23:43:46.384Z,99.90
2023-04-15T23:46:14.634Z,99.90
2023-04-15T23:48:42.903Z,99.90
2023-04-15T23:51:11.220Z,99.90
2023-04-15T23:53:40.865Z,99.90
2023-04-15T23:56:09.307Z,99.90
2023-04-15T23:58:37.543Z,99.90
